Time;durP1;ratioP1;P1;durP2;ratioP2;P2;SDS_P1;SDS_P2;PMS_P1;PMS_P2;Temp;Humidity;BMP_temperature;BMP_pressure;BME280_temperature;BME280_humidity;BME280_pressure;Samples;Min_cycle;Max_cycle;Signal;HPM_P1;HPM_P2
2021/05/15 00:01:44;;;;;;;2.45;1.38;;;25.00;44.20;;;;;;5016971;28;20038;-61
2021/05/15 00:04:10;;;;;;;2.38;1.40;;;25.10;44.30;;;;;;5021214;28;20811;-60
2021/05/15 00:06:36;;;;;;;2.88;1.60;;;25.10;44.30;;;;;;5010831;28;20064;-61
2021/05/15 00:09:03;;;;;;;2.85;1.50;;;25.10;44.30;;;;;;5025541;28;20033;-60
2021/05/15 00:11:28;;;;;;;2.53;1.42;;;25.10;44.20;;;;;;5023971;28;20053;-60
2021/05/15 00:13:54;;;;;;;2.53;1.30;;;25.10;44.50;;;;;;5024866;28;20061;-60
2021/05/15 00:16:19;;;;;;;2.22;1.20;;;25.10;44.20;;;;;;5023678;28;20114;-60
2021/05/15 00:18:46;;;;;;;2.72;1.25;;;25.10;44.20;;;;;;5021978;28;20427;-60
2021/05/15 00:21:12;;;;;;;1.92;1.10;;;25.10;44.20;;;;;;5004274;28;20459;-61
2021/05/15 00:23:38;;;;;;;2.22;1.20;;;25.10;44.10;;;;;;5005867;28;20414;-59
2021/05/15 00:26:04;;;;;;;2.70;1.17;;;25.10;44.20;;;;;;5005224;28;20141;-60
2021/05/15 00:28:30;;;;;;;2.40;1.25;;;25.10;44.10;;;;;;5005437;28;20471;-61
2021/05/15 00:30:56;;;;;;;3.03;1.40;;;25.20;44.20;;;;;;5004427;28;20064;-60
2021/05/15 00:33:22;;;;;;;2.13;1.20;;;25.10;44.10;;;;;;5005059;28;20030;-60
2021/05/15 00:35:48;;;;;;;2.22;1.27;;;25.20;44.10;;;;;;5017081;28;20056;-60
2021/05/15 00:38:14;;;;;;;3.10;1.30;;;25.20;44.10;;;;;;5016455;28;20033;-62
2021/05/15 00:40:40;;;;;;;3.03;1.40;;;25.20;44.10;;;;;;5016827;28;20037;-60
2021/05/15 00:43:07;;;;;;;2.67;1.30;;;25.20;44.10;;;;;;5004836;28;20037;-60
2021/05/15 00:45:33;;;;;;;2.00;1.20;;;25.10;44.00;;;;;;5009312;28;20037;-60
2021/05/15 00:47:59;;;;;;;2.60;1.20;;;25.20;44.00;;;;;;5019891;28;20034;-61
2021/05/15 00:50:24;;;;;;;2.63;1.35;;;25.20;43.90;;;;;;5027815;28;20036;-61
2021/05/15 00:52:50;;;;;;;1.90;1.00;;;25.20;44.00;;;;;;5014102;28;20053;-60
2021/05/15 00:55:16;;;;;;;2.00;1.15;;;25.20;44.00;;;;;;5013953;28;20041;-59
2021/05/15 00:57:42;;;;;;;2.70;1.10;;;25.20;44.10;;;;;;5013395;28;20128;-61
2021/05/15 01:00:13;;;;;;;2.47;1.25;;;25.20;44.10;;;;;;4989387;28;20520;-62
2021/05/15 01:02:39;;;;;;;2.63;1.30;;;25.10;44.20;;;;;;5000722;28;20113;-59
2021/05/15 01:05:07;;;;;;;1.88;1.30;;;25.10;44.10;;;;;;5015955;28;20048;-60
2021/05/15 01:07:32;;;;;;;1.90;1.20;;;25.10;44.20;;;;;;5011337;28;20216;-60
2021/05/15 01:09:58;;;;;;;2.75;1.30;;;25.10;44.20;;;;;;5024820;28;20119;-60
2021/05/15 01:12:24;;;;;;;3.28;1.35;;;25.10;44.20;;;;;;5022207;28;20044;-60
2021/05/15 01:14:50;;;;;;;2.47;1.30;;;25.10;44.20;;;;;;5019051;28;20435;-60
2021/05/15 01:17:15;;;;;;;2.70;1.00;;;25.10;44.20;;;;;;5014685;28;20076;-60
2021/05/15 01:19:42;;;;;;;2.00;1.20;;;25.10;44.20;;;;;;5012541;28;20026;-60
2021/05/15 01:22:10;;;;;;;1.83;1.15;;;25.00;44.20;;;;;;5024427;28;20021;-62
2021/05/15 01:24:36;;;;;;;1.95;1.10;;;25.00;44.20;;;;;;5025383;28;20026;-60
2021/05/15 01:27:10;;;;;;;1.65;1.10;;;25.00;44.20;;;;;;5021166;28;20521;-59
2021/05/15 01:29:36;;;;;;;2.30;1.20;;;25.00;44.20;;;;;;5024452;28;20350;-60
2021/05/15 01:32:03;;;;;;;2.70;1.20;;;25.00;44.20;;;;;;5036711;28;20067;-60
2021/05/15 01:34:28;;;;;;;2.15;1.20;;;24.90;44.20;;;;;;5050977;28;20036;-61
2021/05/15 01:36:54;;;;;;;2.20;1.10;;;25.00;44.20;;;;;;5051265;28;20033;-60
2021/05/15 01:39:20;;;;;;;1.65;1.00;;;24.90;44.10;;;;;;5049198;28;20037;-60
2021/05/15 01:41:46;;;;;;;1.92;1.15;;;24.90;44.20;;;;;;5050630;28;20036;-60
2021/05/15 01:44:12;;;;;;;1.77;1.13;;;24.90;44.20;;;;;;5044447;28;20451;-60
2021/05/15 01:46:37;;;;;;;2.08;0.95;;;24.90;44.20;;;;;;5034148;28;20029;-60
2021/05/15 01:49:04;;;;;;;2.20;1.00;;;24.90;44.20;;;;;;5038007;28;20448;-61
2021/05/15 01:51:30;;;;;;;1.90;1.00;;;24.80;44.20;;;;;;5044799;28;20032;-62
2021/05/15 01:53:56;;;;;;;2.42;1.20;;;24.80;44.10;;;;;;5049382;28;20090;-60
2021/05/15 01:56:24;;;;;;;1.95;1.10;;;24.80;44.20;;;;;;5045650;28;20033;-60
2021/05/15 01:58:50;;;;;;;1.85;1.00;;;24.80;44.20;;;;;;5048944;28;20025;-60
2021/05/15 02:01:17;;;;;;;3.10;1.10;;;24.80;44.20;;;;;;5034800;28;20380;-61
2021/05/15 02:03:44;;;;;;;1.40;0.80;;;24.80;44.30;;;;;;5025401;28;20080;-62
2021/05/15 02:06:10;;;;;;;1.63;1.10;;;24.80;44.20;;;;;;5012539;28;20058;-62
2021/05/15 02:08:36;;;;;;;1.63;0.90;;;24.80;44.20;;;;;;5011775;28;20452;-62
2021/05/15 02:11:02;;;;;;;1.60;1.00;;;24.70;44.20;;;;;;5010116;28;20116;-63
2021/05/15 02:13:28;;;;;;;1.60;1.10;;;24.70;44.30;;;;;;5010693;28;20069;-63
2021/05/15 02:16:00;;;;;;;1.60;1.00;;;24.70;44.30;;;;;;5007554;28;20038;-63
2021/05/15 02:18:26;;;;;;;2.05;1.10;;;24.70;44.30;;;;;;5017268;28;20066;-63
2021/05/15 02:20:53;;;;;;;1.58;0.95;;;24.70;44.30;;;;;;5023514;28;20030;-62
2021/05/15 02:23:19;;;;;;;1.85;1.10;;;24.70;44.30;;;;;;5029603;28;20377;-62
2021/05/15 02:25:46;;;;;;;2.03;1.00;;;24.60;44.20;;;;;;5029058;28;20014;-61
2021/05/15 02:28:13;;;;;;;2.10;1.20;;;24.60;44.30;;;;;;5011637;28;20029;-61
2021/05/15 02:30:39;;;;;;;1.75;0.93;;;24.60;44.30;;;;;;5024617;28;20700;-62
2021/05/15 02:33:05;;;;;;;1.98;0.98;;;24.60;44.30;;;;;;5029578;28;20030;-62
2021/05/15 02:35:31;;;;;;;1.50;1.00;;;24.60;44.30;;;;;;5029998;28;20099;-62
2021/05/15 02:37:57;;;;;;;1.80;1.05;;;24.60;44.30;;;;;;5029518;28;20033;-62
2021/05/15 02:40:24;;;;;;;1.60;0.90;;;24.60;44.30;;;;;;5017677;28;20033;-62
2021/05/15 02:42:51;;;;;;;1.95;1.00;;;24.60;44.30;;;;;;5009830;28;20361;-62
2021/05/15 02:45:19;;;;;;;1.80;1.08;;;24.60;44.40;;;;;;5023476;28;20135;-63
2021/05/15 02:47:45;;;;;;;2.03;0.95;;;24.50;44.30;;;;;;5021472;28;20026;-61
2021/05/15 02:50:13;;;;;;;1.48;1.00;;;24.50;44.40;;;;;;5019931;28;20029;-62
2021/05/15 02:52:39;;;;;;;1.60;1.00;;;24.50;44.40;;;;;;5021901;28;20033;-61
2021/05/15 02:55:07;;;;;;;2.35;1.10;;;24.50;44.40;;;;;;5011801;28;20098;-62
2021/05/15 02:57:34;;;;;;;1.73;1.00;;;24.40;44.40;;;;;;5008531;28;20092;-61
2021/05/15 02:59:59;;;;;;;1.95;1.00;;;24.40;44.40;;;;;;5016609;28;20112;-61
2021/05/15 03:02:25;;;;;;;1.75;0.93;;;24.40;44.40;;;;;;5013039;28;20116;-61
2021/05/15 03:04:51;;;;;;;1.30;0.98;;;24.40;44.50;;;;;;5010243;28;20177;-62
2021/05/15 03:07:16;;;;;;;1.55;1.00;;;24.40;44.50;;;;;;5009681;28;20034;-62
2021/05/15 03:09:44;;;;;;;1.92;1.35;;;24.40;44.50;;;;;;5009931;28;20049;-62
2021/05/15 03:12:10;;;;;;;1.50;0.90;;;24.30;44.50;;;;;;5020318;28;20037;-61
2021/05/15 03:14:37;;;;;;;1.35;0.90;;;24.30;44.50;;;;;;5028063;28;20033;-61
2021/05/15 03:17:03;;;;;;;1.25;0.80;;;24.30;44.50;;;;;;5026333;28;20503;-61
2021/05/15 03:19:29;;;;;;;1.30;0.80;;;24.30;44.50;;;;;;5026771;28;20109;-61
2021/05/15 03:21:54;;;;;;;1.60;0.90;;;24.30;44.60;;;;;;5012129;28;20109;-62
2021/05/15 03:24:20;;;;;;;1.90;0.90;;;24.30;44.60;;;;;;5027155;28;20113;-61
2021/05/15 03:26:46;;;;;;;1.48;1.00;;;24.20;44.50;;;;;;5028433;28;20105;-62
2021/05/15 03:29:11;;;;;;;1.83;1.00;;;24.20;44.50;;;;;;5027797;28;20029;-62
2021/05/15 03:31:37;;;;;;;1.73;1.08;;;24.20;45.10;;;;;;5014572;28;20069;-61
2021/05/15 03:34:03;;;;;;;1.42;0.90;;;24.20;44.60;;;;;;5016018;28;20028;-62
2021/05/15 03:36:28;;;;;;;1.00;0.80;;;24.20;44.60;;;;;;5016168;28;20034;-61
2021/05/15 03:38:54;;;;;;;1.58;0.90;;;24.20;44.60;;;;;;5008483;28;20108;-61
2021/05/15 03:41:20;;;;;;;2.17;0.80;;;24.10;44.50;;;;;;5012197;28;20117;-62
2021/05/15 03:43:45;;;;;;;1.73;0.82;;;24.10;44.60;;;;;;5019861;28;20171;-61
2021/05/15 03:46:11;;;;;;;1.70;0.90;;;24.10;44.60;;;;;;5017744;28;20029;-62
2021/05/15 03:48:36;;;;;;;1.27;0.80;;;24.10;44.60;;;;;;5008144;28;20064;-61
2021/05/15 03:51:03;;;;;;;1.23;0.90;;;24.10;44.60;;;;;;5012900;28;20485;-61
2021/05/15 03:53:28;;;;;;;1.20;0.80;;;24.10;44.60;;;;;;5010828;28;20113;-61
2021/05/15 03:55:54;;;;;;;1.15;0.80;;;24.10;44.60;;;;;;5011627;28;20112;-61
2021/05/15 03:58:20;;;;;;;0.95;0.70;;;24.10;44.70;;;;;;5013508;28;20033;-61
2021/05/15 04:00:46;;;;;;;1.35;0.80;;;24.10;44.70;;;;;;5004447;28;20131;-62
2021/05/15 04:03:11;;;;;;;1.55;0.98;;;24.00;44.60;;;;;;5023725;28;20033;-62
2021/05/15 04:05:37;;;;;;;0.90;0.73;;;24.00;44.60;;;;;;5024132;28;20112;-61
2021/05/15 04:08:03;;;;;;;1.42;0.88;;;24.00;44.60;;;;;;5009548;28;20080;-61
2021/05/15 04:10:29;;;;;;;1.38;0.80;;;24.00;44.70;;;;;;5023413;28;20444;-61
2021/05/15 04:18:10;;;;;;;1.20;0.80;;;23.90;44.70;;;;;;5024915;28;20093;-60
2021/05/15 04:20:39;;;;;;;0.82;0.70;;;23.90;44.70;;;;;;5024954;28;20777;-61
2021/05/15 04:23:05;;;;;;;;;;;23.90;44.70;;;;;;5026423;28;20036;-61
2021/05/15 04:25:31;;;;;;;1.15;0.70;;;24.00;44.70;;;;;;5011583;28;19909;-63
2021/05/15 04:27:57;;;;;;;1.50;1.00;;;23.90;44.70;;;;;;5009118;28;20104;-62
2021/05/15 04:30:24;;;;;;;1.75;0.85;;;23.90;44.70;;;;;;5016195;28;20044;-61
2021/05/15 04:32:50;;;;;;;1.50;0.85;;;23.90;44.80;;;;;;5026914;28;20029;-61
2021/05/15 04:35:15;;;;;;;1.13;0.80;;;23.90;44.80;;;;;;5022885;28;20116;-62
2021/05/15 04:37:41;;;;;;;1.67;0.80;;;23.90;44.80;;;;;;5010347;28;20038;-61
2021/05/15 04:40:08;;;;;;;0.93;0.70;;;23.80;44.70;;;;;;5020480;28;20029;-62
2021/05/15 04:42:36;;;;;;;1.33;0.80;;;23.80;44.80;;;;;;5019879;28;20034;-62
2021/05/15 04:45:02;;;;;;;1.40;0.80;;;23.80;44.80;;;;;;5009031;28;20156;-61
2021/05/15 04:47:28;;;;;;;1.65;0.82;;;23.80;44.80;;;;;;5016248;28;20026;-62
2021/05/15 04:49:54;;;;;;;1.17;0.80;;;23.80;44.80;;;;;;5008544;28;20045;-62
2021/05/15 04:52:19;;;;;;;1.65;1.00;;;23.80;44.90;;;;;;5013366;28;20061;-63
2021/05/15 04:54:45;;;;;;;1.20;0.70;;;23.80;44.90;;;;;;5021550;28;20488;-60
2021/05/15 04:57:10;;;;;;;1.55;0.73;;;23.80;44.80;;;;;;5013225;28;20117;-61
2021/05/15 04:59:36;;;;;;;1.25;0.80;;;23.80;44.90;;;;;;5024551;28;20044;-61
2021/05/15 05:02:02;;;;;;;1.30;0.70;;;23.80;44.80;;;;;;5001323;28;20199;-62
2021/05/15 05:04:27;;;;;;;1.33;0.80;;;23.80;44.80;;;;;;5020400;28;20145;-62
2021/05/15 05:06:53;;;;;;;1.33;0.80;;;23.80;44.90;;;;;;5009609;28;20092;-61
2021/05/15 05:09:18;;;;;;;1.42;0.75;;;23.70;44.80;;;;;;5022936;28;20338;-61
2021/05/15 05:11:45;;;;;;;1.52;0.82;;;23.70;44.80;;;;;;5023215;28;20087;-62
2021/05/15 05:14:11;;;;;;;1.27;0.70;;;23.70;44.80;;;;;;5011178;28;20477;-61
2021/05/15 05:16:36;;;;;;;1.35;0.82;;;23.70;44.90;;;;;;5008571;28;20068;-61
2021/05/15 05:19:03;;;;;;;1.15;0.75;;;23.70;44.90;;;;;;5019825;28;20057;-61
2021/05/15 05:21:28;;;;;;;0.90;0.70;;;23.70;44.90;;;;;;5014312;28;20026;-61
2021/05/15 05:23:54;;;;;;;2.00;0.80;;;23.70;44.90;;;;;;5012880;28;20543;-61
2021/05/15 05:26:20;;;;;;;1.45;0.70;;;23.70;44.90;;;;;;5029346;28;20071;-60
2021/05/15 05:28:50;;;;;;;1.15;0.70;;;23.70;44.90;;;;;;5028655;28;20037;-60
2021/05/15 05:31:16;;;;;;;1.05;0.80;;;23.70;44.90;;;;;;5021314;28;20049;-61
2021/05/15 05:33:41;;;;;;;1.42;0.80;;;23.60;44.90;;;;;;5009870;28;20042;-62
2021/05/15 05:36:07;;;;;;;1.40;0.80;;;23.60;44.90;;;;;;5019467;28;20076;-62
2021/05/15 05:38:33;;;;;;;0.90;0.60;;;23.60;44.90;;;;;;5027045;28;20030;-62
2021/05/15 05:40:58;;;;;;;1.48;0.80;;;23.60;44.90;;;;;;5025969;28;20045;-60
2021/05/15 05:43:24;;;;;;;1.00;0.73;;;23.60;44.90;;;;;;5030156;28;20373;-61
2021/05/15 05:45:49;;;;;;;1.00;0.80;;;23.60;45.00;;;;;;5025515;28;20380;-61
2021/05/15 05:48:18;;;;;;;1.23;0.80;;;23.60;44.90;;;;;;5022032;28;20057;-60
2021/05/15 05:50:46;;;;;;;1.20;0.80;;;23.60;44.90;;;;;;5026488;28;20450;-62
2021/05/15 05:53:13;;;;;;;0.90;0.70;;;23.60;45.00;;;;;;5023948;28;20289;-61
2021/05/15 05:55:39;;;;;;;1.17;0.80;;;23.60;45.00;;;;;;5013000;28;20033;-59
2021/05/15 05:58:05;;;;;;;1.00;0.70;;;23.50;44.90;;;;;;5014960;28;20096;-60
2021/05/15 06:00:32;;;;;;;1.40;0.93;;;23.60;44.90;;;;;;5020943;28;20037;-63
2021/05/15 06:02:57;;;;;;;0.80;0.70;;;23.60;45.00;;;;;;5024261;28;20029;-60
2021/05/15 06:05:23;;;;;;;1.40;0.90;;;23.50;44.90;;;;;;5009668;28;20030;-63
2021/05/15 06:07:49;;;;;;;1.20;0.65;;;23.50;45.00;;;;;;5007599;28;20038;-60
2021/05/15 06:10:14;;;;;;;1.50;0.70;;;23.50;45.00;;;;;;5009021;28;20033;-60
2021/05/15 06:12:40;;;;;;;1.08;0.70;;;23.50;45.00;;;;;;5014796;28;20037;-60
2021/05/15 06:15:07;;;;;;;1.20;0.80;;;23.50;45.00;;;;;;5009303;28;20097;-61
2021/05/15 06:17:33;;;;;;;0.90;0.70;;;23.50;45.00;;;;;;5016832;28;20041;-60
2021/05/15 06:20:00;;;;;;;1.05;0.60;;;23.50;45.00;;;;;;5010365;28;20029;-61
2021/05/15 06:22:25;;;;;;;1.00;0.70;;;23.50;45.00;;;;;;5009922;28;20026;-61
2021/05/15 06:24:51;;;;;;;0.88;0.70;;;23.40;44.90;;;;;;5013474;28;20027;-61
2021/05/15 06:27:17;;;;;;;0.85;0.60;;;23.50;45.00;;;;;;5011676;28;20033;-61
2021/05/15 06:29:42;;;;;;;1.10;0.70;;;23.40;45.00;;;;;;5015154;28;20052;-62
2021/05/15 06:32:09;;;;;;;1.13;0.70;;;23.40;45.00;;;;;;5011409;28;20049;-60
2021/05/15 06:34:35;;;;;;;0.88;0.70;;;23.40;45.00;;;;;;5007546;28;20385;-60
2021/05/15 06:37:00;;;;;;;0.82;0.65;;;23.40;45.00;;;;;;5009106;28;20105;-61
2021/05/15 06:39:26;;;;;;;0.90;0.77;;;23.40;45.00;;;;;;5009040;28;20113;-60
2021/05/15 06:41:51;;;;;;;1.15;0.75;;;23.40;45.10;;;;;;5016509;28;20077;-61
2021/05/15 06:44:17;;;;;;;0.80;0.60;;;23.40;45.00;;;;;;5015751;28;20026;-60
2021/05/15 06:46:43;;;;;;;1.05;0.65;;;23.40;45.10;;;;;;5009336;28;20532;-62
2021/05/15 06:49:08;;;;;;;0.77;0.60;;;23.40;45.00;;;;;;5019291;28;20137;-60
2021/05/15 06:51:34;;;;;;;1.25;0.88;;;23.40;45.00;;;;;;5011605;28;20132;-60
2021/05/15 06:54:00;;;;;;;1.08;0.68;;;23.40;45.00;;;;;;5009732;28;20496;-60
2021/05/15 06:56:25;;;;;;;0.95;0.60;;;23.40;45.00;;;;;;5013945;28;20141;-59
2021/05/15 06:58:51;;;;;;;0.68;0.60;;;23.40;45.00;;;;;;5013583;28;20026;-60
2021/05/15 07:01:16;;;;;;;0.88;0.70;;;23.40;45.00;;;;;;5009847;28;20041;-61
2021/05/15 07:03:42;;;;;;;1.00;0.70;;;23.40;45.00;;;;;;5009182;28;20018;-60
2021/05/15 07:06:08;;;;;;;0.77;0.60;;;23.40;45.00;;;;;;5018905;28;20111;-60
2021/05/15 07:08:33;;;;;;;1.38;0.70;;;23.40;45.00;;;;;;5014343;28;20479;-60
2021/05/15 07:10:59;;;;;;;1.02;0.60;;;23.40;45.00;;;;;;5009121;28;20029;-60
2021/05/15 07:13:24;;;;;;;1.15;0.63;;;23.30;44.90;;;;;;5006107;28;20430;-61
2021/05/15 07:15:50;;;;;;;0.88;0.63;;;23.30;45.00;;;;;;5022847;28;20026;-59
2021/05/15 07:18:17;;;;;;;0.70;0.60;;;23.30;44.90;;;;;;5015805;28;20029;-59
2021/05/15 07:20:43;;;;;;;1.17;0.70;;;23.30;44.90;;;;;;5019364;28;20034;-60
2021/05/15 07:23:09;;;;;;;1.27;0.70;;;23.30;45.00;;;;;;5037156;28;20037;-59
2021/05/15 07:25:35;;;;;;;0.90;0.60;;;23.30;45.00;;;;;;5024529;28;20432;-60
2021/05/15 07:28:01;;;;;;;0.98;0.60;;;23.30;45.00;;;;;;5014641;28;20041;-60
2021/05/15 07:30:26;;;;;;;1.90;0.68;;;23.30;45.00;;;;;;5016063;28;20107;-60
2021/05/15 07:32:53;;;;;;;1.10;0.63;;;23.30;45.00;;;;;;5008960;28;20137;-60
2021/05/15 07:35:19;;;;;;;1.58;0.63;;;23.30;45.00;;;;;;5013002;28;20420;-60
2021/05/15 07:37:44;;;;;;;1.23;0.73;;;23.30;45.10;;;;;;5015663;28;20029;-60
2021/05/15 07:40:10;;;;;;;0.95;0.70;;;23.30;45.10;;;;;;5017966;28;20029;-60
2021/05/15 07:42:36;;;;;;;2.30;0.80;;;23.30;45.10;;;;;;5014864;28;20030;-60
2021/05/15 07:45:02;;;;;;;0.85;0.63;;;23.30;45.10;;;;;;5016969;28;20032;-61
2021/05/15 07:47:29;;;;;;;1.08;0.70;;;23.30;45.10;;;;;;5013544;28;20077;-60
2021/05/15 07:49:58;;;;;;;0.90;0.63;;;23.30;45.10;;;;;;5011310;28;20179;-61
2021/05/15 07:52:27;;;;;;;1.25;0.63;;;23.30;45.10;;;;;;5012633;28;20461;-58
2021/05/15 07:54:53;;;;;;;0.88;0.60;;;23.30;45.60;;;;;;5016687;28;20047;-60
2021/05/15 07:57:19;;;;;;;1.30;0.60;;;23.30;45.10;;;;;;5024040;28;20133;-60
2021/05/15 07:59:45;;;;;;;1.10;0.70;;;23.30;45.00;;;;;;5017522;28;20113;-60
2021/05/15 08:02:11;;;;;;;0.60;0.60;;;23.30;45.10;;;;;;5010895;28;20037;-60
2021/05/15 08:04:37;;;;;;;1.65;0.60;;;23.30;45.10;;;;;;5018861;28;20180;-60
2021/05/15 08:07:03;;;;;;;0.70;0.60;;;23.30;45.00;;;;;;5007279;28;20171;-60
2021/05/15 08:09:29;;;;;;;1.27;0.60;;;23.30;45.00;;;;;;5012777;28;20028;-59
2021/05/15 08:11:55;;;;;;;2.30;0.77;;;23.30;45.00;;;;;;5008446;28;20026;-62
2021/05/15 08:14:20;;;;;;;1.75;0.70;;;23.30;45.00;;;;;;5007789;28;20080;-60
2021/05/15 08:16:46;;;;;;;1.20;0.70;;;23.30;45.00;;;;;;5004516;28;20068;-60
2021/05/15 08:19:12;;;;;;;1.65;0.80;;;23.30;45.00;;;;;;5013855;28;20044;-60
2021/05/15 08:21:37;;;;;;;0.95;0.50;;;23.30;44.90;;;;;;5011156;28;20033;-60
2021/05/15 08:24:03;;;;;;;1.23;0.60;;;23.30;44.90;;;;;;5024613;28;20036;-60
2021/05/15 08:26:29;;;;;;;1.00;0.70;;;23.30;44.90;;;;;;5025661;28;20438;-60
2021/05/15 08:28:55;;;;;;;1.58;0.60;;;23.30;44.90;;;;;;5017174;28;20766;-61
2021/05/15 08:31:21;;;;;;;1.23;0.60;;;23.30;44.90;;;;;;5007975;28;20068;-62
2021/05/15 08:33:48;;;;;;;1.20;0.63;;;23.30;44.90;;;;;;5019213;28;20187;-60
2021/05/15 08:36:14;;;;;;;1.52;0.70;;;23.30;44.90;;;;;;5021802;28;20429;-60
2021/05/15 08:38:40;;;;;;;1.48;0.60;;;23.30;44.90;;;;;;5016285;28;20070;-58
2021/05/15 08:41:08;;;;;;;2.03;0.60;;;23.30;44.80;;;;;;5011331;28;20026;-60
2021/05/15 08:43:38;;;;;;;0.88;0.50;;;23.30;44.90;;;;;;5007774;28;20147;-60
2021/05/15 08:46:09;;;;;;;1.02;0.60;;;23.30;44.80;;;;;;5009444;28;20092;-63
2021/05/15 08:48:36;;;;;;;1.05;0.63;;;23.30;44.80;;;;;;5015871;28;20041;-60
2021/05/15 08:51:02;;;;;;;0.60;0.50;;;23.30;44.90;;;;;;5025870;28;20698;-59
2021/05/15 08:53:28;;;;;;;1.08;0.73;;;23.40;44.90;;;;;;5026958;28;20061;-61
2021/05/15 08:55:54;;;;;;;1.30;0.65;;;23.40;45.00;;;;;;5017144;28;20064;-60
2021/05/15 08:58:20;;;;;;;1.80;0.60;;;23.30;44.90;;;;;;5018709;28;20021;-60
2021/05/15 09:00:48;;;;;;;0.60;0.43;;;23.40;45.00;;;;;;5017516;28;20048;-60
2021/05/15 09:03:15;;;;;;;0.52;0.50;;;23.40;45.10;;;;;;5023634;28;20049;-61
2021/05/15 09:05:46;;;;;;;1.58;0.57;;;23.30;45.00;;;;;;5019230;28;20064;-61
2021/05/15 09:08:12;;;;;;;2.42;0.60;;;23.40;45.10;;;;;;5015011;28;20096;-62
2021/05/15 09:10:40;;;;;;;1.52;0.80;;;23.40;45.10;;;;;;5018479;28;20034;-58
2021/05/15 09:13:20;;;;;;;0.57;0.50;;;23.40;45.10;;;;;;5023775;28;20037;-61
2021/05/15 09:16:06;;;;;;;1.75;0.70;;;23.40;45.10;;;;;;5011917;28;20041;-60
2021/05/15 09:18:35;;;;;;;1.90;0.80;;;23.40;45.20;;;;;;5017138;28;20055;-59
2021/05/15 09:21:04;;;;;;;0.98;0.60;;;23.40;45.20;;;;;;5026687;28;20036;-60
2021/05/15 09:23:36;;;;;;;1.05;0.70;;;23.40;45.20;;;;;;5028983;28;20365;-63
2021/05/15 09:26:03;;;;;;;0.75;0.50;;;23.40;45.20;;;;;;5022328;28;20095;-61
2021/05/15 09:28:33;;;;;;;0.73;0.50;;;23.30;45.70;;;;;;5016001;28;20080;-63
2021/05/15 09:31:13;;;;;;;1.05;0.60;;;23.40;45.20;;;;;;5023059;28;20040;-61
2021/05/15 09:33:41;;;;;;;0.85;0.50;;;23.40;45.30;;;;;;5027912;28;20583;-61
2021/05/15 09:36:14;;;;;;;1.20;0.57;;;23.40;45.20;;;;;;5016285;28;20111;-61
2021/05/15 09:38:40;;;;;;;0.82;0.50;;;23.40;45.30;;;;;;5009189;28;20036;-63
2021/05/15 09:41:05;;;;;;;0.60;0.50;;;23.40;45.30;;;;;;5025479;28;20025;-61
2021/05/15 09:43:31;;;;;;;0.63;0.60;;;23.30;45.20;;;;;;5023533;28;20039;-62
2021/05/15 09:45:57;;;;;;;0.63;0.55;;;23.40;45.20;;;;;;5009682;28;20105;-61
2021/05/15 09:48:38;;;;;;;1.40;0.60;;;23.40;45.20;;;;;;5022603;28;20041;-61
2021/05/15 09:51:17;;;;;;;1.20;0.60;;;23.40;45.20;;;;;;5023770;28;20036;-60
2021/05/15 09:53:44;;;;;;;0.50;0.50;;;23.40;45.20;;;;;;5015490;28;20030;-61
2021/05/15 09:56:10;;;;;;;2.22;0.57;;;23.40;45.20;;;;;;5010411;28;20426;-60
2021/05/15 09:58:36;;;;;;;1.15;0.57;;;23.40;45.20;;;;;;5011155;28;20045;-61
2021/05/15 10:01:02;;;;;;;0.88;0.60;;;23.40;45.20;;;;;;5007775;28;20539;-60
2021/05/15 10:03:31;;;;;;;1.08;0.63;;;23.40;45.20;;;;;;5010431;28;20073;-60
2021/05/15 10:06:05;;;;;;;1.02;0.55;;;23.40;45.10;;;;;;5018261;28;20485;-59
2021/05/15 10:08:32;;;;;;;0.80;0.52;;;23.40;45.20;;;;;;5016440;28;20357;-59
2021/05/15 10:10:59;;;;;;;2.25;0.60;;;23.40;45.20;;;;;;5015215;28;20132;-62
2021/05/15 10:13:24;;;;;;;0.90;0.52;;;23.40;45.20;;;;;;5020554;28;20142;-61
2021/05/15 10:15:50;;;;;;;0.70;0.50;;;23.40;45.20;;;;;;5022938;28;20080;-62
2021/05/15 10:18:17;;;;;;;2.05;0.50;;;23.40;45.20;;;;;;5021556;28;20030;-62
2021/05/15 10:20:43;;;;;;;1.10;0.60;;;23.40;45.10;;;;;;5010629;28;20484;-61
2021/05/15 10:23:30;;;;;;;1.20;0.60;;;23.40;45.10;;;;;;5012692;28;20020;-61
2021/05/15 10:26:01;;;;;;;0.82;0.50;;;23.40;45.00;;;;;;5008879;28;20033;-62
2021/05/15 10:28:35;;;;;;;0.60;0.40;;;23.40;45.50;;;;;;5021514;28;20444;-61
2021/05/15 10:31:12;;;;;;;0.63;0.50;;;23.40;45.00;;;;;;5010048;28;20042;-61
2021/05/15 10:33:40;;;;;;;2.47;0.60;;;23.40;45.00;;;;;;5006551;28;20054;-62
2021/05/15 10:36:08;;;;;;;0.85;0.45;;;23.40;44.90;;;;;;5020448;28;20449;-62
2021/05/15 10:38:39;;;;;;;0.88;0.50;;;23.40;44.90;;;;;;5028153;28;20614;-60
2021/05/15 10:41:13;;;;;;;0.73;0.43;;;23.40;44.80;;;;;;5011988;28;20026;-63
2021/05/15 10:43:40;;;;;;;0.45;0.40;;;23.40;44.80;;;;;;5010678;28;20492;-61
2021/05/15 10:46:26;;;;;;;0.75;0.50;;;23.40;44.80;;;;;;5006556;28;20327;-62
2021/05/15 10:48:59;;;;;;;0.88;0.47;;;23.40;44.80;;;;;;5015056;28;20065;-60
2021/05/15 10:51:34;;;;;;;0.68;0.50;;;23.40;44.80;;;;;;5011692;28;20151;-62
2021/05/15 10:54:00;;;;;;;2.13;0.50;;;23.40;44.80;;;;;;5013999;28;20086;-61
2021/05/15 10:56:29;;;;;;;0.73;0.50;;;23.40;44.80;;;;;;5007702;28;20030;-62
2021/05/15 10:59:04;;;;;;;1.05;0.40;;;23.40;44.70;;;;;;5011192;28;20018;-61
2021/05/15 11:01:43;;;;;;;0.73;0.40;;;23.40;44.70;;;;;;5005641;28;20026;-61
2021/05/15 11:04:30;;;;;;;0.63;0.60;;;23.40;44.80;;;;;;5004576;28;20042;-61
2021/05/15 11:07:10;;;;;;;0.65;0.40;;;23.40;44.70;;;;;;5007462;28;20034;-63
2021/05/15 11:09:39;;;;;;;0.65;0.50;;;23.40;44.70;;;;;;5017401;28;20037;-61
2021/05/15 11:12:09;;;;;;;1.58;0.70;;;23.40;44.60;;;;;;5011946;28;20100;-62
2021/05/15 11:14:39;;;;;;;1.10;0.50;;;23.40;45.10;;;;;;5018700;28;20049;-61
2021/05/15 11:17:23;;;;;;;0.93;0.52;;;23.40;44.60;;;;;;5024731;28;20059;-62
2021/05/15 11:20:01;;;;;;;1.15;0.47;;;23.40;44.60;;;;;;5007842;28;20022;-60
2021/05/15 11:22:40;;;;;;;0.70;0.40;;;23.40;44.60;;;;;;5010323;28;20108;-60
2021/05/15 11:25:15;;;;;;;1.52;0.70;;;23.40;44.60;;;;;;5018069;28;20026;-62
2021/05/15 11:27:49;;;;;;;0.82;0.50;;;23.40;44.50;;;;;;5012244;28;20033;-61
2021/05/15 11:30:27;;;;;;;0.98;0.60;;;23.40;44.50;;;;;;5013844;28;20049;-62
2021/05/15 11:32:56;;;;;;;1.77;0.90;;;23.40;44.60;;;;;;5026949;28;20025;-60
2021/05/15 11:35:21;;;;;;;1.33;0.70;;;23.40;44.50;;;;;;5042532;28;20039;-61
2021/05/15 11:37:47;;;;;;;1.50;0.85;;;23.40;44.50;;;;;;5030747;28;20632;-60
2021/05/15 11:40:14;;;;;;;1.52;0.70;;;23.40;44.50;;;;;;5039623;28;20040;-60
2021/05/15 11:42:39;;;;;;;2.28;0.77;;;23.40;44.50;;;;;;5040455;28;20349;-60
2021/05/15 11:45:06;;;;;;;1.33;0.70;;;23.40;44.50;;;;;;5038476;28;20027;-60
2021/05/15 11:47:32;;;;;;;1.60;0.77;;;23.40;44.50;;;;;;5039880;28;20032;-61
2021/05/15 11:49:59;;;;;;;0.93;0.60;;;23.40;44.50;;;;;;5031180;28;20365;-60
2021/05/15 11:52:30;;;;;;;1.50;0.80;;;23.40;44.50;;;;;;5042351;28;20033;-63
2021/05/15 11:54:57;;;;;;;1.95;0.80;;;23.40;44.50;;;;;;5035501;28;20028;-60
2021/05/15 11:57:41;;;;;;;1.48;0.80;;;23.40;44.50;;;;;;5046675;28;20449;-59
2021/05/15 12:00:13;;;;;;;1.33;0.80;;;23.40;44.60;;;;;;5039921;28;20033;-60
2021/05/15 12:02:47;;;;;;;1.45;0.75;;;23.40;44.60;;;;;;5040973;28;20127;-62
2021/05/15 12:05:17;;;;;;;1.08;0.68;;;23.50;44.60;;;;;;5041719;28;20037;-60
2021/05/15 12:07:50;;;;;;;1.63;0.90;;;23.50;44.50;;;;;;5039878;28;20033;-62
2021/05/15 12:10:17;;;;;;;1.70;1.13;;;23.40;44.50;;;;;;5033495;28;20483;-61
2021/05/15 12:12:59;;;;;;;2.20;0.70;;;23.40;44.50;;;;;;5041637;28;20151;-62
2021/05/15 12:15:27;;;;;;;1.83;0.75;;;23.40;44.50;;;;;;5036827;28;20741;-63
2021/05/15 12:17:53;;;;;;;1.38;0.73;;;23.50;44.60;;;;;;5039230;28;20037;-60
2021/05/15 12:20:41;;;;;;;1.15;0.80;;;23.40;44.50;;;;;;5043706;28;20074;-63
2021/05/15 12:23:13;;;;;;;0.90;0.60;;;23.40;44.50;;;;;;5043088;28;20109;-59
2021/05/15 12:25:41;;;;;;;1.83;0.85;;;23.40;44.50;;;;;;5031311;28;20026;-60
2021/05/15 12:28:17;;;;;;;1.23;0.70;;;23.40;44.50;;;;;;5058545;28;20021;-60
2021/05/15 12:30:43;;;;;;;1.27;0.70;;;23.40;44.50;;;;;;5035647;28;20045;-60
2021/05/15 12:33:09;;;;;;;1.25;0.80;;;23.50;44.60;;;;;;5042909;28;20116;-61
2021/05/15 12:35:35;;;;;;;1.40;0.80;;;23.50;44.70;;;;;;5043454;28;20025;-61
2021/05/15 12:38:02;;;;;;;1.42;0.80;;;23.40;44.60;;;;;;5044846;28;20060;-61
2021/05/15 12:40:31;;;;;;;1.67;0.80;;;23.50;44.60;;;;;;5031601;28;20037;-61
2021/05/15 12:43:13;;;;;;;1.77;1.00;;;23.50;45.00;;;;;;5036213;28;20665;-62
2021/05/15 12:45:40;;;;;;;1.38;0.80;;;23.50;45.20;;;;;;5024830;28;20559;-60
2021/05/15 12:48:18;;;;;;;1.27;0.77;;;23.50;45.30;;;;;;5037286;28;20036;-61
2021/05/15 12:50:46;;;;;;;1.83;0.90;;;23.60;45.40;;;;;;5033750;28;20033;-60
2021/05/15 12:53:12;;;;;;;1.93;1.00;;;23.60;45.30;;;;;;5038586;28;20095;-60
2021/05/15 12:55:51;;;;;;;1.13;0.80;;;23.60;45.30;;;;;;5043963;28;20567;-60